Terminal Aerodrome Forecast
Issued by NWS

Home | Current Version | Previous Version | Text Only | Print | Product List | Glossary On
Versions: 1 2 3 4 5 6 7 8 9 10 11 12 13 14 15 16 17 18 19 20 21 22
275
FTUS45 KFGZ 011126
TAFPGA
TAF
KPGA 011126Z 0112/0212 34006KT P6SM SCT080 BKN120
     FM011600 25009KT P6SM VCSH BKN060 BKN080
     FM011900 02010G18KT P6SM SCT060 BKN080
     FM020200 04008KT P6SM BKN080 OVC110=

USA.gov is the U.S. government's official web portal to all federal, state and local government web resources and services.